Latest Weather Observations for Westmere

IDV60801

Issued at 6:32 pm EDT Tuesday 28 February 2017 (issued every 30 minutes, with the page automatically refreshed every 10 minutes)

About weather observations | Map of weather stations | Latest weather observations for VIC | Other Formats
Station Details ID: 089112 Name: WESTMERE Lat: -37.71 Lon: 142.94 Height: 226.0 m
Data from the previous 72 hours. | See also: Recent months at Westmere
Date/Time
EDT
Temp
°C
App
Temp
°C
Dew
Point
°C
Rel
Hum
%
Delta-T
°C
Wind Press
QNH
hPa
Press
MSL
hPa
Rain since
9am
mm
Dir  Spd
km/h
Gust
km/h
Spd
kts
Gust
kts
28/06:30pm 29.7 28.5 8.2 26 11.9 N 4 6 2 3 1018.9 1018.2 0.0
28/06:00pm 30.7 28.9 7.2 23 12.8 NNE 6 9 3 5 1018.8 1018.1 0.0
28/05:30pm 33.1 30.6 4.8 17 15.1 NNW 7 13 4 7 1018.8 1018.1 0.0
28/05:00pm 32.8 31.2 6.2 19 14.4 ENE 4 9 2 5 1018.9 1018.2 0.0
28/04:30pm 31.8 28.2 6.8 21 13.7 ENE 15 22 8 12 1019.2 1018.5 0.0
28/04:00pm 32.3 29.9 7.2 21 13.8 NNE 9 22 5 12 1019.4 1018.7 0.0
28/03:30pm 32.8 31.3 6.9 20 14.3 N 4 7 2 4 1019.8 1019.1 0.0
28/03:00pm 33.6 31.7 7.6 20 14.5 NNW 7 17 4 9 1020.0 1019.3 0.0
28/02:30pm 33.6 30.6 7.6 20 14.5 N 13 28 7 15 1020.2 1019.5 0.0
28/02:00pm 31.8 29.1 7.5 22 13.4 N 11 22 6 12 1020.4 1019.7 0.0
28/01:30pm 32.4 28.5 7.3 21 13.9 NNE 17 30 9 16 1020.6 1019.9 0.0
28/01:00pm 31.9 28.5 7.5 22 13.5 NNE 15 22 8 12 1020.9 1020.2 0.0
28/12:30pm 32.2 28.6 8.4 23 13.4 NNE 17 28 9 15 1021.2 1020.5 0.0
28/12:00pm 31.6 27.5 8.6 24 12.9 NW 20 32 11 17 1021.4 1020.7 0.0
28/11:30am 31.5 28.7 8.5 24 12.9 N 13 26 7 14 1021.6 1021.0 0.0
28/11:00am 29.5 27.9 10.1 30 11.0 NNW 9 19 5 10 1021.9 1021.2 0.0
28/10:30am 29.1 27.0 9.8 30 10.9 N 11 19 6 10 1022.0 1021.3 0.0
28/10:00am 27.1 25.8 9.9 34 9.6 NNE 7 11 4 6 1021.9 1021.2 0.0
28/09:30am 25.5 24.0 10.5 39 8.4 NNE 9 13 5 7 1021.8 1021.1 0.0
28/09:00am 22.7 21.6 10.8 47 6.6 NNE 7 9 4 5 1021.5 1020.8 0.0
28/08:30am 19.7 19.4 11.5 59 4.6 NNE 4 6 2 3 1021.4 1020.7 0.0
28/08:00am 15.5 14.7 11.1 75 2.4 NE 6 9 3 5 1021.3 1020.6 0.0
28/07:30am 12.4 11.5 9.4 82 1.5 ENE 4 6 2 3 1021.2 1020.5 0.0
28/07:00am 11.9 10.5 8.9 82 1.5 ENE 6 6 3 3 1020.9 1020.2 0.0
28/06:30am 12.1 10.7 8.9 81 1.6 E 6 7 3 4 1020.7 1020.0 0.0
28/06:00am 12.4 12.2 9.1 80 1.7 CALM 0 0 0 0 1020.6 1019.9 0.0
28/05:30am 12.3 12.0 8.8 79 1.8 CALM 0 0 0 0 1020.5 1019.8 0.0
28/05:00am 12.7 12.5 9.0 78 1.9 CALM 0 0 0 0 1020.3 1019.6 0.0
28/04:30am 13.6 13.5 9.5 76 2.1 CALM 0 2 0 1 1020.5 1019.8 0.0
28/04:00am 13.6 12.8 9.6 77 2.1 E 4 4 2 2 1020.6 1019.9 0.0
28/03:30am 13.6 12.7 9.3 75 2.2 E 4 6 2 3 1020.7 1020.0 0.0
28/03:00am 14.0 12.9 9.8 76 2.2 E 6 6 3 3 1020.8 1020.1 0.0
28/02:30am 14.2 13.3 9.4 73 2.5 E 4 6 2 3 1021.0 1020.3 0.0
28/02:00am 15.3 14.3 10.3 72 2.6 E 6 6 3 3 1021.1 1020.4 0.0
28/01:30am 16.1 14.9 10.2 68 3.1 E 7 9 4 5 1021.0 1020.3 0.0
28/01:00am 16.7 15.6 10.5 67 3.3 E 7 9 4 5 1021.1 1020.4 0.0
28/12:30am 16.8 15.5 11.1 69 3.1 ENE 9 9 5 5 1021.1 1020.4 0.0
28/12:00am 17.4 16.4 10.3 63 3.8 ENE 6 7 3 4 1021.2 1020.5 0.0
 
Date/Time
EDT
Temp
°C
App
Temp
°C
Dew
Point
°C
Rel
Hum
%
Delta-T
°C
Wind Press
QNH
hPa
Press
MSL
hPa
Rain since
9am
mm
Dir  Spd
km/h
Gust
km/h
Spd
kts
Gust
kts
27/11:30pm 19.3 17.9 10.8 58 4.7 E 9 11 5 6 1021.2 1020.5 0.0
27/11:00pm 20.6 19.0 11.5 56 5.1 ESE 11 15 6 8 1021.2 1020.5 0.0
27/10:30pm 20.8 19.1 11.2 54 5.3 ESE 11 15 6 8 1021.1 1020.4 0.0
27/10:00pm 22.3 19.7 10.8 48 6.4 SE 15 20 8 11 1020.9 1020.2 0.0
27/09:30pm 24.2 21.2 9.4 39 8.1 ESE 15 22 8 12 1020.4 1019.7 0.0
27/09:00pm 23.5 22.3 8.0 37 8.2 ENE 4 9 2 5 1020.1 1019.4 0.0
27/08:30pm 24.0 22.2 8.0 36 8.6 NNE 7 9 4 5 1019.7 1019.0 0.0
27/08:00pm 27.8 26.2 8.1 29 10.8 ENE 6 7 3 4 1019.6 1018.9 0.0
27/07:30pm 31.1 30.4 6.9 22 13.2 CALM 0 0 0 0 1019.4 1018.7 0.0
27/07:00pm 31.6 30.1 6.6 21 13.6 SSE 4 9 2 5 1019.3 1018.6 0.0
27/06:30pm 30.8 28.9 6.6 22 13.1 WNW 6 9 3 5 1019.2 1018.5 0.0
27/06:00pm 31.8 30.5 6.1 20 13.9 E 2 6 1 3 1019.3 1018.6 0.0
27/05:30pm 32.2 30.2 6.4 20 14.0 NNW 6 17 3 9 1019.3 1018.6 0.0
27/05:00pm 32.4 29.7 7.3 21 13.8 N 11 17 6 9 1019.4 1018.7 0.0
27/04:30pm 30.9 28.4 6.7 22 13.1 ENE 9 17 5 9 1019.6 1018.9 0.0
27/04:00pm 32.1 30.2 7.7 22 13.5 ENE 7 15 4 8 1019.8 1019.1 0.0
27/03:30pm 32.2 28.7 7.1 21 13.8 NW 15 20 8 11 1020.1 1019.4 0.0
27/03:00pm 31.4 28.6 7.1 22 13.3 NE 11 20 6 11 1020.4 1019.7 0.0
27/02:30pm 31.3 28.7 7.7 23 13.1 NNW 11 20 6 11 1020.7 1020.0 0.0
27/02:00pm 32.1 30.4 8.4 23 13.3 NE 7 19 4 10 1020.9 1020.2 0.0
27/01:30pm 31.6 29.6 8.6 24 12.9 NNE 9 20 5 11 1021.1 1020.4 0.0
27/01:00pm 31.2 28.8 8.8 25 12.6 N 11 20 6 11 1021.4 1020.7 0.0
27/12:30pm 30.2 26.1 8.6 26 12.1 N 20 26 11 14 1021.5 1020.8 0.0
27/12:00pm 30.2 25.8 9.1 27 11.8 N 22 32 12 17 1021.6 1021.0 0.0
27/11:30am 29.3 25.1 9.9 30 11.0 N 22 33 12 18 1021.9 1021.2 0.0
27/11:00am 28.5 24.0 10.2 32 10.4 N 24 33 13 18 1022.1 1021.4 0.0
27/10:30am 27.5 22.7 10.2 34 9.8 N 26 35 14 19 1022.2 1021.5 0.0
27/10:00am 26.2 21.0 10.4 37 8.9 N 28 33 15 18 1022.2 1021.5 0.0
27/09:30am 24.5 21.4 11.5 44 7.4 NNE 19 26 10 14 1022.3 1021.6 0.0
27/09:00am 21.2 20.2 13.4 61 4.5 NNE 11 13 6 7 1022.3 1021.6 0.0
27/08:30am 17.5 17.0 12.8 74 2.6 NNE 7 13 4 7 1022.1 1021.4 0.0
27/08:00am 14.1 13.8 12.7 91 0.8 NE 6 7 3 4 1022.0 1021.3 0.0
27/07:30am 11.7 10.7 10.9 95 0.4 NE 7 7 4 4 1021.5 1020.8 0.0
27/07:00am 10.7 9.4 9.8 94 0.5 NE 7 9 4 5 1021.2 1020.5 0.0
27/06:30am 10.4 9.2 9.5 94 0.5 ENE 6 6 3 3 1021.0 1020.3 0.0
27/06:00am 11.4 10.8 10.5 94 0.5 ENE 4 6 2 3 1020.8 1020.1 0.0
27/05:30am 12.1 11.3 11.2 94 0.5 ENE 6 6 3 3 1020.6 1019.9 0.0
27/05:00am 11.3 10.2 10.0 92 0.7 ENE 6 7 3 4 1020.4 1019.7 0.0
27/04:30am 12.3 11.9 11.0 92 0.7 ENE 4 6 2 3 1020.5 1019.8 0.0
27/04:00am 13.0 12.7 11.6 91 0.8 ENE 4 6 2 3 1020.4 1019.7 0.0
27/03:30am 13.5 13.3 11.7 89 1.0 ENE 4 6 2 3 1020.5 1019.8 0.0
27/03:00am 15.2 14.3 12.7 85 1.4 E 9 15 5 8 1020.4 1019.7 0.0
27/02:30am 14.9 13.7 12.9 88 1.1 ESE 11 15 6 8 1020.4 1019.7 0.0
27/02:00am 13.4 12.8 11.8 90 0.9 ESE 6 9 3 5 1020.4 1019.7 0.0
27/01:30am 13.7 12.9 11.6 87 1.1 ESE 7 9 4 5 1020.4 1019.7 0.0
27/01:00am 14.6 14.1 11.9 84 1.5 ESE 6 6 3 3 1020.4 1019.7 0.0
27/12:30am 15.1 14.6 12.1 82 1.6 ESE 6 7 3 4 1020.4 1019.7 0.0
27/12:00am 15.5 14.9 11.7 78 2.1 SE 6 7 3 4 1020.5 1019.8 0.0
 
Date/Time
EDT
Temp
°C
App
Temp
°C
Dew
Point
°C
Rel
Hum
%
Delta-T
°C
Wind Press
QNH
hPa
Press
MSL
hPa
Rain since
9am
mm
Dir  Spd
km/h
Gust
km/h
Spd
kts
Gust
kts
26/11:30pm 17.1 15.7 12.2 73 2.7 SE 11 13 6 7 1020.5 1019.8 0.0
26/11:00pm 18.5 16.4 12.3 67 3.5 ESE 15 20 8 11 1020.4 1019.7 0.0
26/10:30pm 19.9 17.5 12.7 63 4.1 ESE 17 20 9 11 1020.2 1019.5 0.0
26/10:00pm 20.6 17.7 12.8 61 4.5 ESE 20 26 11 14 1020.0 1019.3 0.0
26/09:30pm 21.1 18.4 12.8 59 4.8 ESE 19 24 10 13 1019.8 1019.1 0.0
26/09:00pm 21.9 19.1 12.7 56 5.3 ESE 19 22 10 12 1019.3 1018.6 0.0
26/08:30pm 23.0 19.3 12.6 52 6.0 ESE 24 30 13 16 1018.9 1018.2 0.0
26/08:00pm 24.6 20.8 12.5 46 7.0 SE 24 32 13 17 1018.7 1018.0 0.0
26/07:30pm 26.8 23.3 12.1 40 8.6 SE 22 30 12 16 1018.4 1017.7 0.0
26/07:00pm 29.4 27.8 7.9 26 11.8 ESE 6 9 3 5 1018.2 1017.5 0.0
26/06:30pm 29.8 28.1 7.7 25 12.1 ESE 6 13 3 7 1018.0 1017.3 0.0
26/06:00pm 30.6 28.9 7.7 24 12.6 NW 6 9 3 5 1017.9 1017.2 0.0
26/05:30pm 30.1 28.6 8.5 26 12.0 N 6 9 3 5 1017.8 1017.0 0.0
26/05:00pm 29.9 27.8 8.3 26 12.0 E 9 17 5 9 1017.9 1017.2 0.0
26/04:30pm 29.9 28.4 8.3 26 12.0 N 6 15 3 8 1018.0 1017.3 0.0
26/04:00pm 30.3 28.8 9.2 27 11.9 E 7 15 4 8 1018.2 1017.5 0.0
26/03:30pm 29.8 27.2 9.3 28 11.6 NNE 13 22 7 12 1018.5 1017.8 0.0
26/03:00pm 28.7 26.4 8.9 29 11.0 NNW 11 17 6 9 1018.9 1018.2 0.0
26/02:30pm 28.8 26.5 9.0 29 11.1 NNE 11 19 6 10 1019.3 1018.6 0.0
26/02:00pm 28.1 27.2 11.2 35 9.7 WNW 7 15 4 8 1019.5 1018.8 0.0
26/01:30pm 26.0 25.4 11.7 41 8.2 N 6 15 3 8 1019.8 1019.1 0.0
26/01:00pm 25.4 24.1 11.2 41 8.1 N 9 15 5 8 1020.2 1019.5 0.0
26/12:30pm 24.8 23.4 12.1 45 7.3 NE 11 19 6 10 1020.6 1019.9 0.0
26/12:00pm 23.5 21.6 11.9 48 6.6 NNE 13 22 7 12 1020.7 1020.0 0.0
26/11:30am 22.8 21.0 12.1 51 6.1 NE 13 24 7 13 1020.9 1020.2 0.0
26/11:00am 21.3 19.7 11.6 54 5.4 ENE 11 19 6 10 1021.2 1020.5 0.0
26/10:30am 20.9 19.1 12.1 57 5.0 E 13 19 7 10 1021.2 1020.5 0.0
26/10:00am 18.9 16.7 12.2 65 3.8 E 15 20 8 11 1021.4 1020.7 0.0
26/09:30am 17.6 15.1 12.3 71 3.0 ESE 17 24 9 13 1021.5 1020.8 0.0
26/09:00am 16.4 13.6 12.6 78 2.1 E 19 26 10 14 1021.4 1020.7 0.0
26/08:30am 15.1 14.4 13.1 88 1.1 ESE 9 19 5 10 1021.4 1020.7 0.0
26/08:00am 11.7 11.2 10.8 94 0.5 SSE 4 6 2 3 1021.5 1020.8 0.0
26/07:30am 10.1 8.8 9.2 94 0.5 S 6 6 3 3 1021.3 1020.6 0.0
26/07:00am 11.3 9.7 10.2 93 0.6 SSW 9 11 5 6 1021.0 1020.3 0.0
26/06:30am 12.6 11.8 11.2 91 0.7 SSE 6 7 3 4 1020.7 1020.0 0.0
26/06:00am 13.2 11.7 11.8 91 0.8 S 11 15 6 8 1020.6 1019.9 0.0
26/05:30am 13.3 11.8 11.9 91 0.8 SSE 11 15 6 8 1020.3 1019.6 0.0
26/05:00am 12.9 12.0 11.5 91 0.7 SSE 7 9 4 5 1020.2 1019.5 0.0
26/04:30am 12.4 11.3 10.8 90 0.8 S 7 9 4 5 1020.3 1019.6 0.0
26/04:00am 12.0 10.8 10.4 90 0.8 SSE 7 11 4 6 1020.7 1020.0 0.0
26/03:30am 12.1 10.1 10.3 89 0.9 S 11 15 6 8 1021.1 1020.4 0.0
26/03:00am 11.7 9.3 9.9 89 0.9 SSW 13 19 7 10 1021.2 1020.5 0.0
26/02:30am 11.5 9.5 10.2 92 0.7 SSW 11 15 6 8 1021.5 1020.8 0.0
26/02:00am 11.2 9.9 10.0 92 0.6 SSW 7 11 4 6 1021.9 1021.2 0.0
26/01:30am 11.1 9.9 10.3 95 0.4 SSW 7 11 4 6 1022.4 1021.7 0.0
26/01:00am 10.8 9.5 10.0 95 0.4 SSW 7 9 4 5 1022.8 1022.1 0.0
26/12:30am 11.0 9.8 10.2 95 0.4 SSW 7 13 4 7 1022.9 1022.2 0.0
26/12:00am 10.2 8.8 9.4 95 0.4 S 7 7 4 4 1023.2 1022.5 0.0
 
Date/Time
EDT
Temp
°C
App
Temp
°C
Dew
Point
°C
Rel
Hum
%
Delta-T
°C
Wind Press
QNH
hPa
Press
MSL
hPa
Rain since
9am
mm
Dir  Spd
km/h
Gust
km/h
Spd
kts
Gust
kts
25/11:30pm 10.0 8.1 9.1 94 0.5 S 9 11 5 6 1023.3 1022.6 0.0
25/11:00pm 10.2 8.3 9.1 93 0.5 S 9 13 5 7 1023.5 1022.8 0.0
25/10:30pm 11.5 8.7 10.1 91 0.7 S 15 19 8 10 1023.4 1022.7 0.0
25/10:00pm 12.0 9.3 10.2 89 0.9 S 15 20 8 11 1023.3 1022.6 0.0
25/09:30pm 12.3 9.1 9.9 85 1.2 SSW 17 20 9 11 1023.2 1022.5 0.0
25/09:00pm 12.8 9.5 9.4 80 1.7 SSW 17 22 9 12 1023.3 1022.6 0.0
25/08:30pm 13.8 9.9 9.3 74 2.3 S 20 28 11 15 1023.1 1022.4 0.0
25/08:00pm 14.6 10.2 8.8 68 3.0 S 22 32 12 17 1022.8 1022.1 0.0
25/07:30pm 15.9 10.6 8.4 61 3.8 S 26 35 14 19 1022.5 1021.8 0.0
25/07:00pm 17.1 11.6 7.7 54 4.8 S 26 37 14 20 1022.4 1021.7 0.0

Other Formats:

Comma delimited format used in spreadsheet applications
http://www.bom.gov.au/fwo/IDV60801/IDV60801.95840.axf

JavaScript Object Notation format (JSON) in row-major order
http://www.bom.gov.au/fwo/IDV60801/IDV60801.95840.json